createdAt,value
2023-02-25T00:00:34.391Z,2.45
2023-02-25T00:03:01.735Z,1.98
2023-02-25T00:05:31.736Z,2.45
2023-02-25T00:07:58.741Z,3.03
2023-02-25T00:10:25.333Z,2.10
2023-02-25T00:12:51.885Z,1.70
2023-02-25T00:15:18.551Z,2.78
2023-02-25T00:17:45.265Z,3.15
2023-02-25T00:20:13.671Z,2.05
2023-02-25T00:22:40.636Z,3.05
2023-02-25T00:25:09.145Z,3.05
2023-02-25T00:27:35.776Z,2.53
2023-02-25T00:30:02.366Z,2.03
2023-02-25T00:32:29.256Z,2.55
2023-02-25T00:34:57.472Z,2.42
2023-02-25T00:37:24.065Z,3.30
2023-02-25T00:39:50.622Z,2.55
2023-02-25T00:42:18.114Z,1.00
2023-02-25T00:44:45.739Z,0.60
2023-02-25T00:47:12.326Z,1.33
2023-02-25T00:49:38.936Z,0.75
2023-02-25T00:52:05.548Z,0.75
2023-02-25T00:54:33.578Z,1.10
2023-02-25T00:57:00.204Z,1.33
2023-02-25T00:59:27.063Z,1.70
2023-02-25T01:01:53.758Z,1.95
2023-02-25T01:04:20.356Z,2.70
2023-02-25T01:06:47.177Z,2.50
2023-02-25T01:09:14.079Z,1.70
2023-02-25T01:11:50.004Z,2.10
2023-02-25T01:14:19.510Z,1.83
2023-02-25T01:16:47.886Z,1.83
2023-02-25T01:19:20.852Z,1.85
2023-02-25T01:21:49.061Z,1.85
2023-02-25T01:24:21.844Z,2.20
2023-02-25T01:26:50.183Z,2.00
2023-02-25T01:29:18.935Z,1.65
2023-02-25T01:31:46.090Z,2.17
2023-02-25T01:34:17.473Z,2.28
2023-02-25T01:36:44.796Z,1.98
2023-02-25T01:39:12.361Z,2.00
2023-02-25T01:41:39.381Z,1.85
2023-02-25T01:44:09.846Z,1.63
2023-02-25T01:46:37.401Z,1.80
2023-02-25T01:49:08.770Z,1.90
2023-02-25T01:51:36.568Z,2.58
2023-02-25T01:54:04.143Z,2.10
2023-02-25T01:56:30.976Z,2.35
2023-02-25T01:58:58.633Z,3.13
2023-02-25T02:01:27.070Z,2.10
2023-02-25T02:03:53.841Z,1.83
2023-02-25T02:06:28.545Z,2.08
2023-02-25T02:08:55.183Z,1.83
2023-02-25T02:11:21.768Z,1.90
2023-02-25T02:13:51.005Z,1.77
2023-02-25T02:16:44.507Z,1.65
2023-02-25T02:19:28.294Z,1.55
2023-02-25T02:22:13.202Z,2.10
2023-02-25T02:24:51.671Z,1.60
2023-02-25T02:28:03.552Z,1.45
2023-02-25T02:30:55.308Z,2.00
2023-02-25T02:33:37.941Z,1.98
2023-02-25T02:36:29.466Z,1.50
2023-02-25T02:39:03.356Z,1.52
2023-02-25T02:41:35.424Z,1.73
2023-02-25T02:44:23.362Z,1.90
2023-02-25T02:46:57.649Z,1.90
2023-02-25T02:49:40.934Z,1.40
2023-02-25T02:52:15.232Z,1.52
2023-02-25T02:54:52.079Z,1.77
2023-02-25T02:57:21.395Z,1.60
2023-02-25T02:59:54.040Z,1.70
2023-02-25T03:02:24.129Z,1.30
2023-02-25T03:04:54.056Z,1.80
2023-02-25T03:07:21.949Z,1.55
2023-02-25T03:09:50.887Z,1.23
2023-02-25T03:12:17.781Z,1.52
2023-02-25T03:14:44.368Z,1.50
2023-02-25T03:17:14.993Z,1.40
2023-02-25T03:20:07.114Z,1.10
2023-02-25T03:22:39.407Z,1.30
2023-02-25T03:25:15.146Z,1.00
2023-02-25T03:27:43.799Z,1.05
2023-02-25T03:30:38.001Z,1.38
2023-02-25T03:33:18.991Z,1.08
2023-02-25T03:35:46.735Z,1.10
2023-02-25T03:38:17.385Z,1.10
2023-02-25T03:40:44.135Z,1.17
2023-02-25T03:43:15.984Z,1.10
2023-02-25T03:45:44.256Z,1.35
2023-02-25T03:48:12.787Z,1.05
2023-02-25T03:50:49.915Z,1.10
2023-02-25T03:53:16.676Z,0.80
2023-02-25T03:55:50.477Z,0.90
2023-02-25T03:58:17.303Z,0.90
2023-02-25T04:00:46.350Z,0.93
2023-02-25T04:03:12.896Z,0.93
2023-02-25T04:05:39.557Z,1.00
2023-02-25T04:08:15.835Z,0.82
2023-02-25T04:10:44.033Z,0.88
2023-02-25T04:13:11.858Z,0.80
2023-02-25T04:15:38.898Z,0.80
2023-02-25T04:18:05.663Z,0.90
2023-02-25T04:20:33.275Z,0.90
2023-02-25T04:23:00.936Z,0.80
2023-02-25T04:25:27.820Z,0.80
2023-02-25T04:27:54.595Z,0.80
2023-02-25T04:30:21.496Z,0.88
2023-02-25T04:32:48.096Z,1.02
2023-02-25T04:35:14.690Z,0.93
2023-02-25T04:37:42.067Z,1.10
2023-02-25T04:40:14.054Z,0.70
2023-02-25T04:42:40.931Z,0.85
2023-02-25T04:45:09.381Z,0.80
2023-02-25T04:47:36.104Z,1.08
2023-02-25T04:50:03.193Z,0.90
2023-02-25T04:52:29.946Z,0.95
2023-02-25T04:54:56.507Z,0.90
2023-02-25T04:57:23.040Z,0.93
2023-02-25T04:59:49.603Z,1.23
2023-02-25T05:02:16.302Z,0.80
2023-02-25T05:04:43.041Z,0.80
2023-02-25T05:07:09.800Z,0.93
2023-02-25T05:09:36.336Z,0.90
2023-02-25T05:12:03.332Z,1.10
2023-02-25T05:14:32.524Z,0.70
2023-02-25T05:16:59.473Z,0.93
2023-02-25T05:19:26.165Z,0.95
2023-02-25T05:21:53.720Z,0.80
2023-02-25T05:24:20.530Z,0.90
2023-02-25T05:26:47.080Z,1.15
2023-02-25T05:29:13.632Z,1.20
2023-02-25T05:31:40.620Z,1.00
2023-02-25T05:34:07.287Z,0.90
2023-02-25T05:36:33.837Z,0.73
2023-02-25T05:39:03.620Z,1.02
2023-02-25T05:41:30.425Z,1.00
2023-02-25T05:43:58.319Z,1.10
2023-02-25T05:46:25.704Z,0.90
2023-02-25T05:48:52.661Z,1.20
2023-02-25T05:51:20.398Z,0.90
2023-02-25T05:53:48.118Z,1.08
2023-02-25T05:56:17.547Z,0.90
2023-02-25T05:58:44.175Z,1.10
2023-02-25T06:01:13.685Z,0.93
2023-02-25T06:03:41.886Z,0.85
2023-02-25T06:06:08.697Z,0.80
2023-02-25T06:08:35.656Z,0.85
2023-02-25T06:11:02.289Z,0.93
2023-02-25T06:13:28.830Z,0.73
2023-02-25T06:15:55.471Z,0.70
2023-02-25T06:18:22.067Z,1.00
2023-02-25T06:20:48.824Z,0.90
2023-02-25T06:23:15.379Z,1.00
2023-02-25T06:25:42.068Z,0.80
2023-02-25T06:28:08.607Z,1.10
2023-02-25T06:30:35.269Z,0.80
2023-02-25T06:33:01.878Z,1.30
2023-02-25T06:35:28.784Z,0.88
2023-02-25T06:37:59.680Z,1.30
2023-02-25T06:40:27.318Z,1.20
2023-02-25T06:42:53.848Z,1.00
2023-02-25T06:45:20.724Z,1.33
2023-02-25T06:47:47.282Z,1.00
2023-02-25T06:50:14.391Z,1.38
2023-02-25T06:52:40.958Z,1.02
2023-02-25T06:55:07.915Z,1.00
2023-02-25T06:57:35.010Z,1.33
2023-02-25T07:00:01.610Z,1.38
2023-02-25T07:02:28.331Z,1.30
2023-02-25T07:04:55.184Z,1.38
2023-02-25T07:07:22.244Z,1.40
2023-02-25T07:09:48.922Z,1.00
2023-02-25T07:12:15.496Z,1.10
2023-02-25T07:14:42.047Z,1.10
2023-02-25T07:17:08.636Z,0.85
2023-02-25T07:19:35.249Z,1.10
2023-02-25T07:22:01.892Z,1.08
2023-02-25T07:24:28.449Z,1.00
2023-02-25T07:26:55.668Z,1.00
2023-02-25T07:29:22.778Z,1.00
2023-02-25T07:31:49.490Z,0.95
2023-02-25T07:34:16.168Z,0.70
2023-02-25T07:36:42.736Z,0.80
2023-02-25T07:39:11.498Z,1.10
2023-02-25T07:41:38.568Z,1.00
2023-02-25T07:44:06.076Z,0.80
2023-02-25T07:46:33.124Z,0.90
2023-02-25T07:48:59.740Z,1.00
2023-02-25T07:51:26.614Z,0.93
2023-02-25T07:53:54.890Z,1.08
2023-02-25T07:56:22.710Z,0.90
2023-02-25T07:58:49.266Z,1.10
2023-02-25T08:01:23.795Z,0.85
2023-02-25T08:03:52.218Z,0.77
2023-02-25T08:06:19.012Z,1.00
2023-02-25T08:08:45.558Z,1.08
2023-02-25T08:11:13.979Z,0.80
2023-02-25T08:13:41.569Z,0.50
2023-02-25T08:16:10.468Z,0.80
2023-02-25T08:18:37.802Z,0.90
2023-02-25T08:21:04.828Z,0.60
2023-02-25T08:23:31.732Z,0.50
2023-02-25T08:25:58.918Z,0.63
2023-02-25T08:28:27.141Z,0.60
2023-02-25T08:30:53.910Z,0.60
2023-02-25T08:33:20.847Z,0.80
2023-02-25T08:35:47.398Z,0.65
2023-02-25T08:38:14.244Z,0.70
2023-02-25T08:40:41.000Z,0.70
2023-02-25T08:43:08.267Z,0.60
2023-02-25T08:45:37.173Z,0.50
2023-02-25T08:48:04.712Z,0.70
2023-02-25T08:50:31.344Z,0.65
2023-02-25T08:52:58.339Z,0.57
2023-02-25T08:55:25.491Z,0.52
2023-02-25T08:57:52.958Z,0.60
2023-02-25T09:00:21.176Z,0.38
2023-02-25T09:02:48.152Z,0.60
2023-02-25T09:05:14.743Z,0.60
2023-02-25T09:07:41.327Z,0.70
2023-02-25T09:10:09.311Z,0.73
2023-02-25T09:12:39.806Z,0.60
2023-02-25T09:15:07.570Z,0.70
2023-02-25T09:17:35.247Z,0.63
2023-02-25T09:20:01.917Z,0.50
2023-02-25T09:22:28.608Z,0.50
2023-02-25T09:24:56.165Z,0.50
2023-02-25T09:27:22.786Z,0.70
2023-02-25T09:29:49.465Z,0.68
2023-02-25T09:32:19.785Z,0.50
2023-02-25T09:34:49.199Z,0.50
2023-02-25T09:37:16.633Z,0.40
2023-02-25T09:39:43.277Z,0.70
2023-02-25T09:42:13.905Z,0.50
2023-02-25T09:44:46.312Z,0.60
2023-02-25T09:47:19.557Z,0.50
2023-02-25T09:49:56.127Z,0.45
2023-02-25T09:52:28.784Z,0.50
2023-02-25T09:54:56.724Z,0.70
2023-02-25T09:57:23.827Z,0.40
2023-02-25T09:59:53.731Z,0.40
2023-02-25T10:02:35.891Z,0.30
2023-02-25T10:05:05.464Z,0.40
2023-02-25T10:07:35.970Z,0.50
2023-02-25T10:10:09.597Z,0.40
2023-02-25T10:12:54.292Z,0.50
2023-02-25T10:15:51.978Z,0.40
2023-02-25T10:18:25.116Z,0.65
2023-02-25T10:21:08.253Z,0.30
2023-02-25T10:23:59.663Z,0.47
2023-02-25T10:26:30.077Z,0.50
2023-02-25T10:29:00.803Z,0.50
2023-02-25T10:31:29.986Z,0.63
2023-02-25T10:33:58.551Z,0.52
2023-02-25T10:36:32.253Z,0.40
2023-02-25T10:38:59.360Z,0.32
2023-02-25T10:41:27.172Z,0.50
2023-02-25T10:43:55.201Z,0.35
2023-02-25T10:46:36.425Z,0.32
2023-02-25T10:49:16.382Z,0.30
2023-02-25T10:52:01.138Z,0.32
2023-02-25T10:54:27.910Z,0.40
2023-02-25T10:56:55.074Z,0.40
2023-02-25T10:59:31.984Z,0.30
2023-02-25T11:01:59.818Z,0.40
2023-02-25T11:04:36.118Z,0.40
2023-02-25T11:07:24.080Z,0.30
2023-02-25T11:10:19.560Z,0.30
2023-02-25T11:12:50.175Z,0.40
2023-02-25T11:15:50.123Z,0.40
2023-02-25T11:18:23.388Z,0.30
2023-02-25T11:20:58.375Z,0.30
2023-02-25T11:23:33.047Z,0.30
2023-02-25T11:25:59.999Z,0.20
2023-02-25T11:28:32.085Z,0.30
2023-02-25T11:31:12.043Z,0.30
2023-02-25T11:33:41.150Z,0.30
2023-02-25T11:36:07.985Z,0.20
2023-02-25T11:38:35.677Z,0.30
2023-02-25T11:41:03.161Z,0.28
2023-02-25T11:43:39.439Z,0.20
2023-02-25T11:46:28.133Z,0.30
2023-02-25T11:49:04.206Z,0.20
2023-02-25T11:51:41.001Z,0.50
2023-02-25T11:54:29.062Z,0.20
2023-02-25T11:57:18.207Z,0.20
2023-02-25T12:00:11.594Z,0.30
2023-02-25T12:03:20.455Z,0.20
2023-02-25T12:05:53.171Z,0.50
2023-02-25T12:08:53.827Z,0.30
2023-02-25T12:11:47.636Z,0.30
2023-02-25T12:14:35.998Z,0.30
2023-02-25T12:17:20.937Z,0.40
2023-02-25T12:20:18.642Z,0.40
2023-02-25T12:23:19.395Z,0.40
2023-02-25T12:25:51.910Z,0.68
2023-02-25T12:28:31.052Z,0.73
2023-02-25T12:31:25.221Z,0.50
2023-02-25T12:34:22.836Z,0.30
2023-02-25T12:37:13.245Z,0.20
2023-02-25T12:40:04.534Z,0.20
2023-02-25T12:42:53.761Z,0.25
2023-02-25T12:45:34.691Z,0.40
2023-02-25T12:48:26.633Z,0.30
2023-02-25T12:51:15.058Z,0.20
2023-02-25T12:53:45.028Z,0.40
2023-02-25T12:56:30.902Z,0.47
2023-02-25T12:59:28.300Z,0.52
2023-02-25T13:02:16.392Z,0.40
2023-02-25T13:05:23.535Z,0.50
2023-02-25T13:08:06.409Z,0.60
2023-02-25T13:11:00.668Z,0.40
2023-02-25T13:13:36.361Z,0.35
2023-02-25T13:16:34.071Z,0.38
2023-02-25T13:19:33.187Z,0.40
2023-02-25T13:22:12.559Z,0.30
2023-02-25T13:25:12.560Z,0.38
2023-02-25T13:28:16.492Z,0.40
2023-02-25T13:30:58.135Z,0.30
2023-02-25T13:33:58.003Z,0.40
2023-02-25T13:36:52.056Z,0.40
2023-02-25T13:39:56.482Z,0.40
2023-02-25T13:42:35.079Z,0.40
2023-02-25T13:45:39.975Z,0.47
2023-02-25T13:48:36.931Z,0.50
2023-02-25T13:51:45.312Z,0.40
2023-02-25T13:54:27.286Z,0.60
2023-02-25T13:57:05.620Z,0.57
2023-02-25T13:59:58.213Z,0.50
2023-02-25T14:02:43.765Z,0.60
2023-02-25T14:05:47.642Z,0.47
2023-02-25T14:08:23.929Z,0.70
2023-02-25T14:10:55.342Z,0.30
2023-02-25T14:13:45.781Z,0.50
2023-02-25T14:16:21.092Z,0.57
2023-02-25T14:18:51.002Z,0.50
2023-02-25T14:21:32.122Z,0.70
2023-02-25T14:24:29.223Z,0.50
2023-02-25T14:27:32.164Z,0.60
2023-02-25T14:30:13.806Z,0.52
2023-02-25T14:32:50.996Z,0.50
2023-02-25T14:35:26.550Z,0.65
2023-02-25T14:38:36.043Z,0.60
2023-02-25T14:41:27.089Z,0.80
2023-02-25T14:43:57.554Z,0.70
2023-02-25T14:46:43.203Z,0.68
2023-02-25T14:49:16.539Z,0.82
2023-02-25T14:52:11.915Z,0.77
2023-02-25T14:54:47.490Z,0.60
2023-02-25T14:57:40.160Z,0.75
2023-02-25T15:00:41.211Z,0.60
2023-02-25T15:03:26.620Z,0.63
2023-02-25T15:06:02.228Z,0.50
2023-02-25T15:09:18.022Z,0.30
2023-02-25T15:12:22.268Z,1.23
2023-02-25T15:15:20.133Z,0.60
2023-02-25T15:18:17.749Z,0.75
2023-02-25T15:20:44.663Z,0.80
2023-02-25T15:23:19.853Z,0.52
2023-02-25T15:25:47.597Z,0.43
2023-02-25T15:28:29.334Z,0.50
2023-02-25T15:30:58.922Z,0.50
2023-02-25T15:33:41.772Z,0.40
2023-02-25T15:36:14.421Z,0.50
2023-02-25T15:38:50.926Z,0.40
2023-02-25T15:41:26.874Z,0.40
2023-02-25T15:44:03.060Z,0.45
2023-02-25T15:46:35.317Z,0.30
2023-02-25T15:49:21.435Z,0.60
2023-02-25T15:51:51.536Z,0.30
2023-02-25T15:54:30.459Z,0.50
2023-02-25T15:57:27.116Z,0.47
2023-02-25T15:59:58.147Z,0.50
2023-02-25T16:02:30.793Z,0.52
2023-02-25T16:05:02.473Z,0.52
2023-02-25T16:07:38.509Z,0.50
2023-02-25T16:10:26.881Z,0.90
2023-02-25T16:12:55.726Z,0.65
2023-02-25T16:15:26.866Z,0.60
2023-02-25T16:17:56.220Z,0.60
2023-02-25T16:20:30.346Z,0.80
2023-02-25T16:22:59.489Z,0.50
2023-02-25T16:26:00.000Z,0.40
2023-02-25T16:29:09.848Z,0.60
2023-02-25T16:31:54.921Z,0.30
2023-02-25T16:34:43.323Z,0.43
2023-02-25T16:37:15.830Z,0.63
2023-02-25T16:39:42.505Z,0.60
2023-02-25T16:42:12.780Z,0.50
2023-02-25T16:44:40.284Z,0.50
2023-02-25T16:47:22.687Z,0.68
2023-02-25T16:49:50.088Z,0.60
2023-02-25T16:52:18.376Z,0.60
2023-02-25T16:54:46.155Z,0.60
2023-02-25T16:57:21.849Z,0.80
2023-02-25T16:59:50.814Z,0.73
2023-02-25T17:02:17.351Z,1.00
2023-02-25T17:04:47.767Z,0.70
2023-02-25T17:07:25.193Z,1.08
2023-02-25T17:10:01.993Z,0.70
2023-02-25T17:12:41.323Z,0.90
2023-02-25T17:15:14.649Z,0.90
2023-02-25T17:17:43.295Z,0.75
2023-02-25T17:20:18.201Z,0.90
2023-02-25T17:22:45.645Z,0.90
2023-02-25T17:25:16.085Z,0.80
2023-02-25T17:27:44.272Z,1.15
2023-02-25T17:30:34.261Z,0.90
2023-02-25T17:33:00.948Z,0.85
2023-02-25T17:35:28.159Z,0.60
2023-02-25T17:37:55.696Z,1.33
2023-02-25T17:40:25.961Z,1.25
2023-02-25T17:43:16.667Z,5.40
2023-02-25T17:45:50.126Z,2.85
2023-02-25T17:48:18.897Z,2.42
2023-02-25T17:50:52.235Z,1.35
2023-02-25T17:53:39.400Z,1.13
2023-02-25T17:56:16.074Z,1.08
2023-02-25T17:58:44.787Z,1.40
2023-02-25T18:01:29.625Z,1.92
2023-02-25T18:03:59.619Z,1.50
2023-02-25T18:06:30.630Z,1.10
2023-02-25T18:08:57.662Z,1.17
2023-02-25T18:11:28.646Z,1.00
2023-02-25T18:13:55.398Z,1.33
2023-02-25T18:16:35.632Z,0.98
2023-02-25T18:19:02.832Z,1.50
2023-02-25T18:21:29.599Z,0.98
2023-02-25T18:23:56.559Z,0.88
2023-02-25T18:26:25.341Z,1.77
2023-02-25T18:28:53.246Z,0.95
2023-02-25T18:31:20.424Z,0.70
2023-02-25T18:33:47.721Z,1.10
2023-02-25T18:36:26.960Z,2.08
2023-02-25T18:38:55.179Z,1.02
2023-02-25T18:41:21.790Z,1.00
2023-02-25T18:43:48.375Z,0.77
2023-02-25T18:46:15.760Z,0.70
2023-02-25T18:48:42.565Z,1.00
2023-02-25T18:51:13.724Z,0.90
2023-02-25T18:53:40.839Z,1.08
2023-02-25T18:56:08.752Z,0.80
2023-02-25T18:58:35.328Z,0.80
2023-02-25T19:01:02.366Z,0.75
2023-02-25T19:03:31.210Z,0.98
2023-02-25T19:05:58.073Z,0.93
2023-02-25T19:08:24.848Z,0.70
2023-02-25T19:10:52.350Z,1.40
2023-02-25T19:13:32.702Z,0.88
2023-02-25T19:15:59.308Z,1.02
2023-02-25T19:18:25.912Z,1.00
2023-02-25T19:20:52.812Z,0.90
2023-02-25T19:23:19.708Z,0.90
2023-02-25T19:25:47.851Z,1.00
2023-02-25T19:28:14.674Z,0.70
2023-02-25T19:30:43.240Z,0.63
2023-02-25T19:33:14.154Z,0.77
2023-02-25T19:35:44.737Z,0.50
2023-02-25T19:38:14.933Z,0.70
2023-02-25T19:40:44.167Z,0.60
2023-02-25T19:43:11.356Z,0.70
2023-02-25T19:45:40.454Z,0.90
2023-02-25T19:48:07.579Z,0.80
2023-02-25T19:50:35.046Z,0.65
2023-02-25T19:53:02.900Z,0.65
2023-02-25T19:55:29.721Z,0.65
2023-02-25T19:58:02.378Z,0.90
2023-02-25T20:00:29.091Z,0.60
2023-02-25T20:02:56.376Z,0.90
2023-02-25T20:05:24.764Z,0.70
2023-02-25T20:07:51.543Z,0.70
2023-02-25T20:10:19.550Z,0.82
2023-02-25T20:12:46.757Z,0.93
2023-02-25T20:15:14.503Z,0.77
2023-02-25T20:17:42.379Z,0.70
2023-02-25T20:20:10.278Z,0.73
2023-02-25T20:22:37.976Z,0.80
2023-02-25T20:25:05.824Z,0.73
2023-02-25T20:27:32.886Z,0.70
2023-02-25T20:29:59.579Z,1.20
2023-02-25T20:32:26.200Z,0.77
2023-02-25T20:34:53.079Z,0.60
2023-02-25T20:37:24.763Z,1.20
2023-02-25T20:39:53.826Z,0.65
2023-02-25T20:42:30.962Z,0.80
2023-02-25T20:44:58.725Z,0.77
2023-02-25T20:47:31.156Z,0.82
2023-02-25T20:49:58.470Z,0.70
2023-02-25T20:52:27.070Z,0.60
2023-02-25T20:54:54.203Z,0.60
2023-02-25T20:57:22.465Z,0.70
2023-02-25T20:59:49.896Z,0.60
2023-02-25T21:02:17.030Z,0.55
2023-02-25T21:04:44.386Z,0.65
2023-02-25T21:07:11.838Z,1.05
2023-02-25T21:09:38.767Z,0.60
2023-02-25T21:12:05.808Z,1.08
2023-02-25T21:14:32.815Z,0.80
2023-02-25T21:16:59.603Z,0.95
2023-02-25T21:19:28.175Z,0.50
2023-02-25T21:21:55.488Z,0.80
2023-02-25T21:24:22.691Z,0.70
2023-02-25T21:26:49.651Z,0.65
2023-02-25T21:29:16.321Z,0.70
2023-02-25T21:31:43.238Z,1.02
2023-02-25T21:34:12.818Z,0.90
2023-02-25T21:36:40.642Z,0.70
2023-02-25T21:39:09.356Z,1.00
2023-02-25T21:41:37.148Z,0.85
2023-02-25T21:44:03.806Z,0.50
2023-02-25T21:46:30.695Z,0.60
2023-02-25T21:48:57.340Z,0.70
2023-02-25T21:51:25.849Z,0.73
2023-02-25T21:53:58.610Z,0.80
2023-02-25T21:56:26.426Z,0.85
2023-02-25T21:58:58.037Z,0.77
2023-02-25T22:01:30.439Z,0.65
2023-02-25T22:03:57.786Z,1.00
2023-02-25T22:06:25.427Z,0.70
2023-02-25T22:08:53.054Z,0.73
2023-02-25T22:11:21.833Z,0.68
2023-02-25T22:13:48.753Z,0.80
2023-02-25T22:16:15.855Z,0.77
2023-02-25T22:18:42.730Z,0.90
2023-02-25T22:21:27.646Z,0.75
2023-02-25T22:23:57.044Z,0.80
2023-02-25T22:26:26.320Z,0.68
2023-02-25T22:28:58.130Z,0.68
2023-02-25T22:31:25.354Z,0.88
2023-02-25T22:33:52.236Z,0.60
2023-02-25T22:36:19.375Z,0.73
2023-02-25T22:38:47.581Z,0.80
2023-02-25T22:41:23.243Z,0.77
2023-02-25T22:43:50.326Z,1.13
2023-02-25T22:46:37.631Z,0.75
2023-02-25T22:49:05.833Z,0.98
2023-02-25T22:51:35.620Z,0.55
2023-02-25T22:54:02.429Z,0.70
2023-02-25T22:56:29.028Z,0.90
2023-02-25T22:58:55.811Z,0.75
2023-02-25T23:01:24.081Z,0.68
2023-02-25T23:03:51.382Z,0.80
2023-02-25T23:06:20.378Z,0.68
2023-02-25T23:08:47.708Z,0.60
2023-02-25T23:11:22.704Z,0.70
2023-02-25T23:13:52.556Z,0.60
2023-02-25T23:16:30.574Z,0.80
2023-02-25T23:18:59.074Z,0.73
2023-02-25T23:21:26.959Z,0.60
2023-02-25T23:23:57.186Z,1.05
2023-02-25T23:26:30.440Z,0.82
2023-02-25T23:28:58.889Z,0.73
2023-02-25T23:31:28.088Z,0.90
2023-02-25T23:34:04.208Z,0.90
2023-02-25T23:36:31.078Z,0.85
2023-02-25T23:38:59.265Z,0.55
2023-02-25T23:41:26.891Z,0.93
2023-02-25T23:43:55.049Z,0.93
2023-02-25T23:46:25.259Z,0.90
2023-02-25T23:48:56.277Z,0.68
2023-02-25T23:51:23.215Z,0.68
2023-02-25T23:53:54.582Z,0.90
2023-02-25T23:56:21.703Z,0.80
2023-02-25T23:58:53.892Z,0.82
